Time;durP1;ratioP1;P1;durP2;ratioP2;P2;SDS_P1;SDS_P2;PMS_P1;PMS_P2;Temp;Humidity;BMP_temperature;BMP_pressure;BME280_temperature;BME280_humidity;BME280_pressure;Samples;Min_cycle;Max_cycle;Signal;HPM_P1;HPM_P2
2023/10/05 00:01:20;;;;;;;;;;;;;;;23.14;51.13;101645.78;7395892;19;1474;-41
2023/10/05 00:03:50;;;;;;;;;;;;;;;23.15;51.20;101642.06;7396156;19;1594;-42
2023/10/05 00:06:23;;;;;;;;;;;;;;;23.14;51.15;101631.41;7396448;19;1522;-41
2023/10/05 00:08:52;;;;;;;;;;;;;;;23.13;51.15;101641.34;7393921;19;1872;-41
2023/10/05 00:11:29;;;;;;;;;;;;;;;23.15;51.35;101646.63;7386831;19;1488;-41
2023/10/05 00:13:58;;;;;;;;;;;;;;;23.17;51.34;101652.72;7401215;19;1880;-41
2023/10/05 00:16:36;;;;;;;;;;;;;;;23.15;51.34;101642.06;7401444;19;1642;-41
2023/10/05 00:19:05;;;;;;;;;;;;;;;23.16;51.31;101637.53;7401561;19;1807;-41
2023/10/05 00:21:35;;;;;;;;;;;;;;;23.15;51.37;101636.66;7400932;19;1633;-41
2023/10/05 00:24:06;;;;;;;;;;;;;;;23.11;51.16;101631.72;7402634;19;2035;-41
2023/10/05 00:26:38;;;;;;;;;;;;;;;23.15;51.44;101633.13;7400891;19;1425;-41
2023/10/05 00:29:15;;;;;;;;;;;;;;;23.15;51.29;101638.53;7399197;19;1846;-41
2023/10/05 00:31:44;;;;;;;;;;;;;;;23.15;51.27;101639.38;7400353;19;1479;-41
2023/10/05 00:34:18;;;;;;;;;;;;;;;23.17;51.19;101641.94;7401815;19;1551;-41
2023/10/05 00:36:50;;;;;;;;;;;;;;;23.18;51.16;101638.25;7401235;19;1563;-41
2023/10/05 00:39:19;;;;;;;;;;;;;;;23.16;50.99;101643.78;7400213;19;1751;-41
2023/10/05 00:41:58;;;;;;;;;;;;;;;23.17;51.19;101653.56;7401288;19;1618;-42
2023/10/05 00:44:28;;;;;;;;;;;;;;;23.14;51.16;101632.28;7400544;19;1464;-41
2023/10/05 00:46:59;;;;;;;;;;;;;;;23.12;51.16;101641.50;7400853;19;1434;-41
2023/10/05 00:49:29;;;;;;;;;;;;;;;23.13;51.51;101640.50;7397165;19;1854;-41
2023/10/05 00:52:09;;;;;;;;;;;;;;;23.12;51.43;101649.59;7401095;19;1718;-41
2023/10/05 00:54:40;;;;;;;;;;;;;;;23.12;51.16;101644.19;7401140;19;1498;-41
2023/10/05 00:57:14;;;;;;;;;;;;;;;23.10;51.35;101651.56;7399838;19;1492;-41
2023/10/05 00:59:44;;;;;;;;;;;;;;;23.11;51.29;101647.91;7396898;19;1441;-41
2023/10/05 01:02:22;;;;;;;;;;;;;;;23.13;51.48;101648.59;7401511;19;1117;-41
2023/10/05 01:05:01;;;;;;;;;;;;;;;23.09;51.19;101653.44;7401695;19;1479;-41
2023/10/05 01:07:43;;;;;;;;;;;;;;;23.09;51.42;101639.09;7401859;19;1576;-41
2023/10/05 01:13:02;;;;;;;;;;;;;;;23.11;51.35;101639.81;7397126;19;1921;-41
2023/10/05 01:15:34;;;;;;;;;;;;;;;23.15;51.26;101649.31;7400966;19;1387;-41
2023/10/05 01:18:03;;;;;;;;;;;;;;;23.08;51.40;101640.06;7399468;19;2502;-41
2023/10/05 01:20:36;;;;;;;;;;;;;;;23.11;51.52;101637.94;7398365;19;1876;-41
2023/10/05 01:23:07;;;;;;;;;;;;;;;23.08;51.49;101648.16;7398903;19;1838;-41
2023/10/05 01:25:36;;;;;;;;;;;;;;;23.07;51.48;101632.97;7400390;19;1793;-41
2023/10/05 01:28:07;;;;;;;;;;;;;;;23.12;51.43;101644.19;7398969;19;1849;-42
2023/10/05 01:30:38;;;;;;;;;;;;;;;23.07;51.43;101644.63;7399863;19;1663;-41
2023/10/05 01:33:08;;;;;;;;;;;;;;;23.08;51.44;101648.16;7399002;19;1741;-41
2023/10/05 01:35:37;;;;;;;;;;;;;;;23.06;51.43;101648.31;7400334;19;1734;-41
2023/10/05 01:38:11;;;;;;;;;;;;;;;23.05;51.45;101637.66;7399787;19;1484;-41
2023/10/05 01:40:39;;;;;;;;;;;;;;;23.07;51.41;101641.09;7398563;19;1790;-41
2023/10/05 01:43:09;;;;;;;;;;;;;;;23.08;51.67;101637.38;7398669;19;1734;-41
2023/10/05 01:45:38;;;;;;;;;;;;;;;23.09;51.22;101649.88;7398115;19;1808;-41
2023/10/05 01:48:12;;;;;;;;;;;;;;;23.07;51.48;101651.88;7398490;19;1867;-41
2023/10/05 01:50:40;;;;;;;;;;;;;;;23.05;51.71;101638.50;7399223;19;1646;-41
2023/10/05 01:53:15;;;;;;;;;;;;;;;23.03;51.50;101648.59;7399872;19;1317;-41
2023/10/05 01:55:45;;;;;;;;;;;;;;;22.99;51.58;101639.91;7399841;19;1536;-41
2023/10/05 01:58:27;;;;;;;;;;;;;;;23.03;51.43;101645.91;7398477;19;1817;-41
2023/10/05 02:00:56;;;;;;;;;;;;;;;23.04;51.44;101642.22;7398295;19;1290;-41
2023/10/05 02:03:25;;;;;;;;;;;;;;;23.00;51.51;101644.31;7397595;19;1869;-41
2023/10/05 02:05:54;;;;;;;;;;;;;;;23.02;51.43;101649.59;7399000;19;1816;-41
2023/10/05 02:08:27;;;;;;;;;;;;;;;23.03;51.63;101641.34;7398978;19;1849;-41
2023/10/05 02:10:55;;;;;;;;;;;;;;;23.03;51.55;101652.13;7384271;19;1718;-41
2023/10/05 02:13:24;;;;;;;;;;;;;;;23.05;51.32;101656.56;7397905;19;1810;-41
2023/10/05 02:15:55;;;;;;;;;;;;;;;23.07;51.66;101654.56;7397197;19;1574;-41
2023/10/05 02:18:25;;;;;;;;;;;;;;;23.03;51.68;101662.94;7397492;19;1770;-41
2023/10/05 02:20:56;;;;;;;;;;;;;;;23.06;51.48;101660.94;7397394;19;1524;-41
2023/10/05 02:23:34;;;;;;;;;;;;;;;23.05;51.53;101664.66;7397308;19;1761;-41
2023/10/05 02:26:09;;;;;;;;;;;;;;;23.04;51.58;101669.19;7397395;19;1471;-41
2023/10/05 02:28:39;;;;;;;;;;;;;;;23.06;51.80;101677.13;7397028;19;1842;-41
2023/10/05 02:31:11;;;;;;;;;;;;;;;23.02;51.55;101661.25;7396800;19;1642;-41
2023/10/05 02:33:40;;;;;;;;;;;;;;;23.05;51.61;101672.75;7395216;19;1535;-41
2023/10/05 02:36:17;;;;;;;;;;;;;;;23.05;51.71;101667.34;7397749;19;1659;-41
2023/10/05 02:38:53;;;;;;;;;;;;;;;23.02;51.74;101665.78;7397079;19;1455;-41
2023/10/05 02:41:25;;;;;;;;;;;;;;;23.00;51.64;101665.88;7397745;19;1906;-41
2023/10/05 02:43:54;;;;;;;;;;;;;;;23.03;51.50;101665.63;7396865;19;1856;-41
2023/10/05 02:46:24;;;;;;;;;;;;;;;23.02;51.56;101677.44;7395837;19;1872;-41
2023/10/05 02:48:52;;;;;;;;;;;;;;;23.01;51.62;101674.81;7394927;19;1946;-41
2023/10/05 02:51:21;;;;;;;;;;;;;;;23.05;51.51;101670.88;7396629;19;1682;-41
2023/10/05 02:53:56;;;;;;;;;;;;;;;23.02;51.66;101681.97;7396939;19;1444;-41
2023/10/05 02:56:26;;;;;;;;;;;;;;;23.02;51.57;101672.03;7396358;19;1509;-41
2023/10/05 02:59:01;;;;;;;;;;;;;;;23.00;51.83;101670.44;7396129;19;1812;-41
2023/10/05 03:01:32;;;;;;;;;;;;;;;22.99;51.56;101657.94;7395949;19;1447;-41
2023/10/05 03:04:03;;;;;;;;;;;;;;;23.07;51.60;101657.25;7395597;19;1686;-41
2023/10/05 03:06:33;;;;;;;;;;;;;;;23.07;51.75;101662.66;7397097;19;1754;-41
2023/10/05 03:09:07;;;;;;;;;;;;;;;23.07;51.65;101668.06;7396614;19;1854;-41
2023/10/05 03:11:39;;;;;;;;;;;;;;;22.99;51.73;101664.16;7381456;19;2007;-41
2023/10/05 03:14:09;;;;;;;;;;;;;;;23.05;51.54;101660.09;7395378;19;1754;-41
2023/10/05 03:16:43;;;;;;;;;;;;;;;23.01;51.61;101675.66;7395234;19;1742;-41
2023/10/05 03:19:13;;;;;;;;;;;;;;;23.00;51.87;101671.28;7394786;19;1709;-41
2023/10/05 03:21:41;;;;;;;;;;;;;;;23.05;51.79;101686.22;7397051;19;1737;-41
2023/10/05 03:24:17;;;;;;;;;;;;;;;23.03;51.74;101673.72;7393707;19;1845;-41
2023/10/05 03:26:47;;;;;;;;;;;;;;;22.98;51.58;101670.56;7395613;19;1846;-41
2023/10/05 03:29:16;;;;;;;;;;;;;;;22.99;51.78;101676.81;7396941;19;1837;-41
2023/10/05 03:31:53;;;;;;;;;;;;;;;22.99;51.76;101668.72;7394895;19;1476;-41
2023/10/05 03:34:25;;;;;;;;;;;;;;;22.98;51.77;101667.03;7395160;19;1793;-41
2023/10/05 03:36:54;;;;;;;;;;;;;;;23.06;51.45;101686.09;7394156;19;1837;-41
2023/10/05 03:39:28;;;;;;;;;;;;;;;23.08;51.51;101680.53;7394763;19;1526;-41
2023/10/05 03:41:56;;;;;;;;;;;;;;;23.09;51.68;101683.09;7394942;19;1582;-41
2023/10/05 03:44:25;;;;;;;;;;;;;;;23.14;51.63;101682.66;7395944;19;1682;-41
2023/10/05 03:46:53;;;;;;;;;;;;;;;23.18;51.42;101694.91;7401430;19;1452;-41
2023/10/05 03:49:21;;;;;;;;;;;;;;;23.17;51.63;101677.00;7401111;19;1860;-41
2023/10/05 03:51:52;;;;;;;;;;;;;;;23.18;51.56;101679.56;7403991;19;1503;-41
2023/10/05 03:54:21;;;;;;;;;;;;;;;23.16;51.66;101684.25;7402319;19;1811;-41
2023/10/05 03:57:04;;;;;;;;;;;;;;;23.14;51.67;101685.38;7400579;19;1595;-41
2023/10/05 03:59:32;;;;;;;;;;;;;;;23.05;52.05;101694.31;7399199;19;2325;-41
2023/10/05 04:02:00;;;;;;;;;;;;;;;23.05;52.04;101702.41;7398404;19;1425;-41
2023/10/05 04:04:30;;;;;;;;;;;;;;;23.06;51.62;101693.31;7402632;19;1456;-52
2023/10/05 04:06:58;;;;;;;;;;;;;;;23.05;51.53;101697.03;7402515;19;1559;-40
2023/10/05 04:09:28;;;;;;;;;;;;;;;23.02;51.40;101681.97;7395950;19;1855;-41
2023/10/05 04:12:00;;;;;;;;;;;;;;;23.09;51.44;101693.91;7387951;19;1536;-40
2023/10/05 04:14:29;;;;;;;;;;;;;;;23.07;51.65;101703.13;7402988;19;1503;-40
2023/10/05 04:16:59;;;;;;;;;;;;;;;22.95;51.51;101705.91;7401469;19;2452;-41
2023/10/05 04:19:27;;;;;;;;;;;;;;;23.17;51.00;101704.00;7402319;19;1758;-41
2023/10/05 04:21:56;;;;;;;;;;;;;;;23.25;50.94;101698.75;7401370;19;1766;-41
2023/10/05 04:24:26;;;;;;;;;;;;;;;23.27;51.17;101691.34;7401164;19;1452;-41
2023/10/05 04:26:55;;;;;;;;;;;;;;;23.12;51.77;101720.59;7400638;19;1526;-41
2023/10/05 04:29:26;;;;;;;;;;;;;;;23.02;48.68;101714.34;7400404;19;1860;-41
2023/10/05 04:31:54;;;;;;;;;;;;;;;23.07;51.68;101716.63;7401391;19;1663;-40
2023/10/05 04:34:24;;;;;;;;;;;;;;;23.00;51.58;101700.97;7399611;19;1495;-41
2023/10/05 04:36:54;;;;;;;;;;;;;;;23.03;51.69;101732.22;7401094;19;1528;-41
2023/10/05 04:39:28;;;;;;;;;;;;;;;23.11;51.29;101712.66;7400264;19;1554;-41
2023/10/05 04:42:04;;;;;;;;;;;;;;;23.08;51.53;101712.91;7400670;19;1476;-41
2023/10/05 04:44:35;;;;;;;;;;;;;;;22.62;45.32;101720.56;7398969;19;1602;-41
2023/10/05 04:47:04;;;;;;;;;;;;;;;22.10;45.58;101739.44;7394990;19;1401;-41
2023/10/05 04:49:35;;;;;;;;;;;;;;;21.80;45.42;101743.75;7399714;19;1855;-41
2023/10/05 04:52:05;;;;;;;;;;;;;;;21.77;44.97;101738.66;7402211;19;1606;-41
2023/10/05 04:54:36;;;;;;;;;;;;;;;21.68;44.70;101739.41;7400603;19;1361;-40
2023/10/05 04:57:07;;;;;;;;;;;;;;;21.73;43.80;101734.50;7400557;19;1496;-41
2023/10/05 04:59:59;;;;;;;;;;;;;;;21.66;43.48;101746.78;7402403;19;1499;-41
2023/10/05 05:02:39;;;;;;;;;;;;;;;21.52;43.39;101744.38;7400774;19;1629;-41
2023/10/05 05:05:31;;;;;;;;;;;;;;;21.49;43.42;101750.00;7402135;19;1269;-40
2023/10/05 05:07:58;;;;;;;;;;;;;;;21.40;43.06;101751.63;7399925;19;1626;-41
2023/10/05 05:10:27;;;;;;;;;;;;;;;21.34;42.96;101744.91;7398685;19;1853;-40
2023/10/05 05:12:57;;;;;;;;;;;;;;;21.34;43.09;101762.88;7385855;19;1830;-41
2023/10/05 05:15:27;;;;;;;;;;;;;;;21.43;42.95;101757.63;7396545;19;1745;-40
2023/10/05 05:17:58;;;;;;;;;;;;;;;21.40;42.80;101771.28;7395158;19;1793;-41
2023/10/05 05:20:26;;;;;;;;;;;;;;;21.36;42.81;101767.16;7396825;19;1718;-40
2023/10/05 05:22:54;;;;;;;;;;;;;;;21.26;43.19;101768.91;7395305;19;1797;-43
2023/10/05 05:25:23;;;;;;;;;;;;;;;21.33;42.94;101772.81;7395705;19;2141;-43
2023/10/05 05:27:55;;;;;;;;;;;;;;;21.35;43.00;101781.59;7400438;19;1464;-44
2023/10/05 05:30:26;;;;;;;;;;;;;;;21.41;42.76;101783.78;7400259;19;1846;-44
2023/10/05 05:32:57;;;;;;;;;;;;;;;21.48;42.32;101776.06;7401506;19;1548;-43
2023/10/05 05:35:25;;;;;;;;;;;;;;;21.40;42.32;101790.13;7400940;19;1598;-44
2023/10/05 05:37:56;;;;;;;;;;;;;;;21.36;42.52;101788.69;7399487;19;1809;-44
2023/10/05 05:40:28;;;;;;;;;;;;;;;21.43;42.33;101779.16;7398909;19;1856;-44
2023/10/05 05:42:57;;;;;;;;;;;;;;;21.55;41.90;101765.69;7385166;19;1909;-43
2023/10/05 05:45:26;;;;;;;;;;;;;;;21.44;42.04;101780.84;7368721;19;1417;-44
2023/10/05 05:47:54;;;;;;;;;;;;;;;21.44;42.33;101780.00;7398176;19;1530;-43
2023/10/05 05:50:29;;;;;;;;;;;;;;;21.47;41.97;101769.00;7398592;19;1856;-43
2023/10/05 05:52:58;;;;;;;;;;;;;;;21.60;41.69;101782.28;7400020;19;1205;-43
2023/10/05 05:55:26;;;;;;;;;;;;;;;21.70;41.70;101777.84;7398545;19;1975;-43
2023/10/05 05:57:55;;;;;;;;;;;;;;;21.62;42.03;101772.25;7397890;19;1768;-43
2023/10/05 06:00:24;;;;;;;;;;;;;;;21.74;41.62;101770.34;7399230;19;1821;-44
2023/10/05 06:02:52;;;;;;;;;;;;;;;21.84;41.50;101777.53;7397637;19;1468;-41
2023/10/05 06:05:22;;;;;;;;;;;;;;;21.84;43.11;101776.66;7396117;19;1880;-41
2023/10/05 06:07:54;;;;;;;;;;;;;;;22.09;42.53;101767.38;7392819;19;1791;-41
2023/10/05 06:10:28;;;;;;;;;;;;;;;22.30;42.16;101771.91;7395891;19;1850;-41
2023/10/05 06:12:58;;;;;;;;;;;;;;;22.44;42.21;101764.34;7397039;19;1525;-41
2023/10/05 06:15:26;;;;;;;;;;;;;;;22.56;42.18;101777.72;7396204;19;1825;-41
2023/10/05 06:17:54;;;;;;;;;;;;;;;22.58;42.23;101783.84;7395036;19;1580;-41
2023/10/05 06:20:22;;;;;;;;;;;;;;;22.33;42.78;101777.91;7395429;19;1769;-41
2023/10/05 06:22:53;;;;;;;;;;;;;;;22.29;43.08;101768.38;7394454;19;1913;-41
2023/10/05 06:25:22;;;;;;;;;;;;;;;22.21;43.04;101774.38;7394793;19;1837;-41
2023/10/05 06:27:50;;;;;;;;;;;;;;;22.24;43.40;101786.75;7394471;19;1742;-41
2023/10/05 06:30:20;;;;;;;;;;;;;;;22.28;43.29;101773.88;7395285;19;1830;-41
2023/10/05 06:32:49;;;;;;;;;;;;;;;22.39;43.28;101787.28;7397881;19;1762;-41
2023/10/05 06:35:17;;;;;;;;;;;;;;;22.44;43.42;101782.34;7398594;19;1871;-41
2023/10/05 06:37:45;;;;;;;;;;;;;;;22.42;43.75;101787.00;7397935;19;1889;-41
2023/10/05 06:40:21;;;;;;;;;;;;;;;22.39;43.68;101779.22;7397045;19;1870;-41
2023/10/05 06:42:51;;;;;;;;;;;;;;;22.39;43.78;101808.84;7397686;19;1807;-41
2023/10/05 06:45:20;;;;;;;;;;;;;;;22.40;44.10;101794.38;7382197;19;1734;-41
2023/10/05 06:47:48;;;;;;;;;;;;;;;22.39;44.18;101788.13;7398302;19;1757;-42
2023/10/05 06:50:16;;;;;;;;;;;;;;;22.42;44.11;101790.59;7397611;19;1832;-41
2023/10/05 06:52:46;;;;;;;;;;;;;;;22.49;44.17;101792.75;7398020;19;1974;-41
2023/10/05 06:55:18;;;;;;;;;;;;;;;22.49;44.13;101790.88;7397928;19;2053;-41
2023/10/05 06:57:49;;;;;;;;;;;;;;;22.57;44.02;101796.47;7397656;19;1709;-41
2023/10/05 07:00:20;;;;;;;;;;;;;;;22.63;44.36;101793.22;7398268;19;1725;-42
2023/10/05 07:02:48;;;;;;;;;;;;;;;22.63;44.34;101800.47;7397332;19;1900;-41
2023/10/05 07:05:17;;;;;;;;;;;;;;;22.66;44.54;101792.13;7397815;19;1821;-41
2023/10/05 07:07:46;;;;;;;;;;;;;;;22.71;44.52;101797.94;7398614;19;1726;-41
2023/10/05 07:10:17;;;;;;;;;;;;;;;22.72;44.49;101778.09;7397590;19;1843;-48
2023/10/05 07:12:46;;;;;;;;;;;;;;;22.74;44.64;101786.03;7397782;19;1813;-41
2023/10/05 07:15:14;;;;;;;;;;;;;;;22.82;44.77;101788.94;7397353;19;1726;-41
2023/10/05 07:17:43;;;;;;;;;;;;;;;22.78;44.81;101791.03;7398491;19;1823;-41
2023/10/05 07:20:12;;;;;;;;;;;;;;;22.83;44.88;101796.88;7394573;19;1887;-41
2023/10/05 07:22:41;;;;;;;;;;;;;;;22.86;44.65;101790.38;7397570;19;1856;-41
2023/10/05 07:25:10;;;;;;;;;;;;;;;22.85;44.79;101796.72;7396267;19;1959;-42
2023/10/05 07:27:41;;;;;;;;;;;;;;;22.91;44.67;101787.25;7397283;19;1725;-41
2023/10/05 07:30:11;;;;;;;;;;;;;;;22.95;44.80;101802.16;7397391;19;1915;-41
2023/10/05 07:32:40;;;;;;;;;;;;;;;22.92;44.87;101806.00;7396496;19;1758;-41
2023/10/05 07:35:09;;;;;;;;;;;;;;;22.92;44.84;101800.59;7395992;19;1960;-41
2023/10/05 07:37:38;;;;;;;;;;;;;;;22.88;44.42;101780.28;7395323;19;1857;-41
2023/10/05 07:40:07;;;;;;;;;;;;;;;22.97;44.62;101795.63;7396832;19;1768;-41
2023/10/05 07:42:37;;;;;;;;;;;;;;;22.94;44.76;101804.03;7396054;19;1766;-41
2023/10/05 07:45:11;;;;;;;;;;;;;;;22.97;44.80;101805.59;7381381;19;1836;-41
2023/10/05 07:47:42;;;;;;;;;;;;;;;23.00;44.88;101806.16;7396846;19;1735;-41
2023/10/05 07:50:12;;;;;;;;;;;;;;;22.99;44.91;101803.59;7395488;19;1871;-41
2023/10/05 07:52:42;;;;;;;;;;;;;;;22.98;44.84;101807.31;7396426;19;1606;-41
2023/10/05 07:55:11;;;;;;;;;;;;;;;22.99;44.92;101815.22;7395867;19;1546;-41
2023/10/05 07:57:39;;;;;;;;;;;;;;;23.03;44.80;101813.16;7396193;19;1726;-41
2023/10/05 08:00:11;;;;;;;;;;;;;;;23.00;45.04;101811.56;7395439;19;1415;-41
2023/10/05 08:02:40;;;;;;;;;;;;;;;22.97;44.98;101814.53;7395666;19;1772;-41
2023/10/05 08:05:09;;;;;;;;;;;;;;;23.03;45.28;101816.69;7396502;19;1588;-41
2023/10/05 08:07:37;;;;;;;;;;;;;;;23.02;44.88;101814.16;7394697;19;2430;-42
2023/10/05 08:10:13;;;;;;;;;;;;;;;23.03;45.02;101814.00;7396658;19;1838;-41
2023/10/05 08:12:41;;;;;;;;;;;;;;;23.03;45.17;101808.59;7397012;19;1038;-41
2023/10/05 08:15:16;;;;;;;;;;;;;;;23.08;44.91;101819.00;7395051;19;1823;-41
2023/10/05 08:17:45;;;;;;;;;;;;;;;23.06;45.09;101820.13;7395234;19;1860;-41
2023/10/05 08:20:16;;;;;;;;;;;;;;;23.02;44.94;101806.06;7395021;19;1864;-41
2023/10/05 08:22:46;;;;;;;;;;;;;;;23.07;45.11;101814.59;7396029;19;1466;-41
2023/10/05 08:25:16;;;;;;;;;;;;;;;23.08;45.08;101820.81;7396910;19;1546;-41
2023/10/05 08:27:46;;;;;;;;;;;;;;;23.08;44.92;101816.31;7395438;19;1795;-41
2023/10/05 08:30:17;;;;;;;;;;;;;;;23.05;45.00;101795.00;7396856;19;1853;-41
2023/10/05 08:32:47;;;;;;;;;;;;;;;23.06;45.09;101804.81;7404259;19;1729;-41
2023/10/05 08:35:17;;;;;;;;;;;;;;;23.09;45.05;101804.50;7402734;19;1711;-41
2023/10/05 08:37:43;;;;;;;;;;;;;;;23.08;45.48;101783.94;7402174;19;1725;-41
2023/10/05 08:40:30;;;;;;;;;;;;;;;23.11;45.46;101815.16;7402278;19;1710;-41
2023/10/05 08:43:08;;;;;;;;;;;;;;;23.18;44.89;101786.66;7401691;19;1764;-41
2023/10/05 08:45:46;;;;;;;;;;;;;;;23.14;45.37;101782.50;7387375;19;1520;-41
2023/10/05 08:48:18;;;;;;;;;;;;;;;23.16;45.46;101791.34;7400829;19;1808;-41
2023/10/05 08:50:47;;;;;;;;;;;;;;;23.12;45.17;101782.66;7400722;19;1844;-41
2023/10/05 08:53:19;;;;;;;;;;;;;;;23.18;45.14;101778.56;7401169;19;1741;-41
2023/10/05 08:55:49;;;;;;;;;;;;;;;23.17;45.38;101787.63;7402397;19;1556;-41
2023/10/05 08:58:18;;;;;;;;;;;;;;;23.15;45.26;101795.03;7402652;19;1842;-41
2023/10/05 09:00:49;;;;;;;;;;;;;;;23.17;45.34;101784.94;7401910;19;1806;-41
2023/10/05 09:03:35;;;;;;;;;;;;;;;23.18;45.35;101774.00;7401914;19;1836;-41
2023/10/05 09:06:20;;;;;;;;;;;;;;;23.22;45.18;101780.84;7401296;19;1526;-41
2023/10/05 09:11:32;;;;;;;;;;;;;;;23.26;44.96;101764.34;7398968;19;2054;-41
2023/10/05 09:14:12;;;;;;;;;;;;;;;23.27;45.24;101764.22;7398788;19;1380;-41
2023/10/05 09:16:47;;;;;;;;;;;;;;;23.29;45.23;101756.84;7400565;19;1587;-41
2023/10/05 09:19:17;;;;;;;;;;;;;;;23.29;45.04;101759.53;7401597;19;1745;-41
2023/10/05 09:21:50;;;;;;;;;;;;;;;23.30;45.19;101774.75;7402090;19;1567;-41
2023/10/05 09:24:20;;;;;;;;;;;;;;;23.27;44.95;101756.13;7402400;19;1734;-41
2023/10/05 09:26:54;;;;;;;;;;;;;;;23.30;45.13;101765.78;7400262;19;1601;-41
2023/10/05 09:29:23;;;;;;;;;;;;;;;23.29;45.27;101754.13;7400543;19;1718;-41
2023/10/05 09:31:55;;;;;;;;;;;;;;;23.35;45.45;101750.88;7398756;19;1837;-41
2023/10/05 09:34:38;;;;;;;;;;;;;;;23.36;45.36;101744.50;7399754;19;1852;-41
2023/10/05 09:37:07;;;;;;;;;;;;;;;23.38;44.98;101742.50;7399713;19;1552;-40
2023/10/05 09:39:42;;;;;;;;;;;;;;;23.40;45.21;101754.00;7400194;19;1709;-40
2023/10/05 09:42:16;;;;;;;;;;;;;;;23.30;44.96;101733.38;7399009;19;1607;-41
2023/10/05 09:44:50;;;;;;;;;;;;;;;23.40;45.19;101745.91;7398081;19;1796;-41
2023/10/05 09:47:25;;;;;;;;;;;;;;;23.40;45.03;101735.13;7384277;19;1953;-41
2023/10/05 09:49:54;;;;;;;;;;;;;;;23.41;45.13;101744.91;7398934;19;1674;-41
2023/10/05 09:52:24;;;;;;;;;;;;;;;23.43;45.30;101732.13;7399037;19;1846;-41
2023/10/05 09:54:53;;;;;;;;;;;;;;;23.43;45.07;101740.22;7400070;19;1967;-40
2023/10/05 09:57:23;;;;;;;;;;;;;;;23.38;45.40;101730.88;7399372;19;1785;-40
2023/10/05 09:59:57;;;;;;;;;;;;;;;23.40;45.35;101720.78;7399035;19;1824;-41
2023/10/05 10:02:30;;;;;;;;;;;;;;;23.39;44.97;101733.41;7399341;19;1448;-41
2023/10/05 10:05:00;;;;;;;;;;;;;;;23.35;45.24;101723.88;7398552;19;1502;-41
2023/10/05 10:07:32;;;;;;;;;;;;;;;23.33;45.53;101714.22;7399370;19;1602;-41
2023/10/05 10:10:04;;;;;;;;;;;;;;;23.35;45.52;101706.84;7398563;19;1837;-41
2023/10/05 10:12:38;;;;;;;;;;;;;;;23.31;45.57;101698.16;7398498;19;1865;-41
2023/10/05 10:15:24;;;;;;;;;;;;;;;23.35;45.31;101707.69;7398636;19;1725;-41
2023/10/05 10:18:06;;;;;;;;;;;;;;;23.35;45.33;101704.16;7399253;19;1914;-41
2023/10/05 10:20:37;;;;;;;;;;;;;;;23.36;45.70;101703.16;7398659;19;1969;-41
2023/10/05 10:23:14;;;;;;;;;;;;;;;23.37;45.54;101711.09;7399530;19;1700;-41
2023/10/05 10:25:43;;;;;;;;;;;;;;;23.43;45.47;101705.13;7400267;19;1662;-41
2023/10/05 10:28:17;;;;;;;;;;;;;;;23.39;45.20;101690.22;7399126;19;1813;-41
2023/10/05 10:30:47;;;;;;;;;;;;;;;23.33;45.42;101685.38;7399308;19;1753;-41
2023/10/05 10:33:30;;;;;;;;;;;;;;;23.33;45.97;101668.34;7397328;19;1834;-41
2023/10/05 10:35:59;;;;;;;;;;;;;;;23.33;45.03;101680.00;7399131;19;1788;-41
2023/10/05 10:38:29;;;;;;;;;;;;;;;23.42;45.12;101684.53;7398130;19;1654;-41
2023/10/05 10:41:09;;;;;;;;;;;;;;;23.30;45.18;101669.50;7399790;19;1753;-41
2023/10/05 10:43:40;;;;;;;;;;;;;;;23.38;45.81;101677.72;7405044;19;1180;-42
2023/10/05 10:46:13;;;;;;;;;;;;;;;23.33;45.21;101657.56;7391429;19;2055;-42
2023/10/05 10:48:57;;;;;;;;;;;;;;;23.33;45.33;101671.03;7401100;19;1857;-41
2023/10/05 10:51:27;;;;;;;;;;;;;;;23.36;44.98;101654.59;7398267;19;1875;-41
2023/10/05 10:53:55;;;;;;;;;;;;;;;23.39;45.32;101644.31;7398350;19;1563;-41
2023/10/05 10:56:27;;;;;;;;;;;;;;;23.56;44.94;101650.00;7398982;19;1713;-41
2023/10/05 10:59:09;;;;;;;;;;;;;;;23.63;44.94;101641.19;7397556;19;1613;-41
2023/10/05 11:01:52;;;;;;;;;;;;;;;23.87;44.28;101644.44;7399871;19;1750;-46
2023/10/05 11:04:32;;;;;;;;;;;;;;;23.63;44.47;101624.13;7398578;19;1404;-41
2023/10/05 11:07:05;;;;;;;;;;;;;;;23.46;44.48;101622.16;7398329;19;1409;-42
2023/10/05 11:09:35;;;;;;;;;;;;;;;23.55;45.00;101634.78;7397952;19;1438;-41
2023/10/05 11:12:15;;;;;;;;;;;;;;;23.51;45.16;101611.78;7394279;19;1848;-41
2023/10/05 11:14:47;;;;;;;;;;;;;;;23.58;44.92;101611.06;7396165;19;1932;-41
2023/10/05 11:17:23;;;;;;;;;;;;;;;23.60;45.05;101605.53;7396818;19;1813;-41
2023/10/05 11:19:54;;;;;;;;;;;;;;;23.62;45.01;101598.97;7396604;19;1808;-41
2023/10/05 11:22:25;;;;;;;;;;;;;;;23.84;44.73;101625.81;7397395;19;1741;-41
2023/10/05 11:25:14;;;;;;;;;;;;;;;23.80;44.68;101606.34;7398180;19;1027;-41
2023/10/05 11:27:55;;;;;;;;;;;;;;;23.75;44.66;101603.19;7395993;19;1460;-41
2023/10/05 11:30:24;;;;;;;;;;;;;;;23.51;45.35;101592.88;7396776;19;1757;-41
2023/10/05 11:33:05;;;;;;;;;;;;;;;23.55;45.03;101586.19;7394427;19;1842;-41
2023/10/05 11:35:43;;;;;;;;;;;;;;;23.70;44.95;101589.31;7395639;19;1535;-41
2023/10/05 11:38:15;;;;;;;;;;;;;;;23.72;44.66;101588.16;7394557;19;1500;-41
2023/10/05 11:40:49;;;;;;;;;;;;;;;23.66;45.12;101575.25;7395958;19;1511;-41
2023/10/05 11:43:18;;;;;;;;;;;;;;;23.59;45.15;101593.84;7396374;19;1576;-41
2023/10/05 11:46:17;;;;;;;;;;;;;;;23.55;45.52;101580.81;7395615;19;1761;-41
2023/10/05 11:48:48;;;;;;;;;;;;;;;23.54;45.35;101579.97;7393838;19;1943;-41
2023/10/05 11:51:27;;;;;;;;;;;;;;;23.63;45.26;101576.38;7395386;19;1934;-41
2023/10/05 11:53:55;;;;;;;;;;;;;;;23.73;45.03;101606.03;7395326;19;1436;-41
2023/10/05 11:56:30;;;;;;;;;;;;;;;23.63;45.19;101567.41;7389848;19;1478;-41
2023/10/05 11:59:00;;;;;;;;;;;;;;;23.50;45.11;101570.44;7389004;19;1443;-41
2023/10/05 12:01:28;;;;;;;;;;;;;;;23.65;45.09;101565.41;7393481;19;1505;-44
2023/10/05 12:03:56;;;;;;;;;;;;;;;23.58;45.45;101553.53;7389991;19;1556;-44
2023/10/05 12:06:28;;;;;;;;;;;;;;;23.56;45.66;101544.72;7399347;19;1611;-43
2023/10/05 12:09:00;;;;;;;;;;;;;;;23.63;45.41;101554.78;7401157;19;1893;-44
2023/10/05 12:11:29;;;;;;;;;;;;;;;23.62;45.30;101539.56;7402253;19;1876;-43
2023/10/05 12:13:58;;;;;;;;;;;;;;;23.73;45.57;101535.81;7398639;19;1755;-43
2023/10/05 12:16:27;;;;;;;;;;;;;;;23.94;45.21;101543.75;7402080;19;1571;-43
2023/10/05 12:18:55;;;;;;;;;;;;;;;23.80;45.70;101542.38;7398347;19;1552;-44
2023/10/05 12:21:24;;;;;;;;;;;;;;;23.84;45.94;101531.28;7401042;19;1499;-44
2023/10/05 12:23:54;;;;;;;;;;;;;;;23.82;45.88;101524.19;7398709;19;1591;-44
2023/10/05 12:26:28;;;;;;;;;;;;;;;23.80;45.98;101523.47;7401300;19;1653;-44
2023/10/05 12:28:57;;;;;;;;;;;;;;;23.92;45.46;101524.13;7401469;19;1467;-43
2023/10/05 12:31:26;;;;;;;;;;;;;;;23.89;45.32;101532.53;7399862;19;1432;-42
2023/10/05 12:33:54;;;;;;;;;;;;;;;23.93;45.33;101533.06;7397736;19;1854;-44
2023/10/05 12:36:23;;;;;;;;;;;;;;;23.99;45.08;101518.97;7400071;19;1385;-41
2023/10/05 12:38:51;;;;;;;;;;;;;;;24.06;45.38;101525.47;7395179;19;1428;-41
2023/10/05 12:41:22;;;;;;;;;;;;;;;23.98;44.78;101528.09;7395323;19;1391;-42
2023/10/05 12:43:50;;;;;;;;;;;;;;;23.90;45.32;101530.69;7399883;19;1424;-42
2023/10/05 12:46:24;;;;;;;;;;;;;;;23.82;45.33;101507.13;7395074;19;1416;-42
2023/10/05 12:49:07;;;;;;;;;;;;;;;23.61;45.57;101491.13;7388932;19;1306;-42
2023/10/05 12:51:36;;;;;;;;;;;;;;;23.79;45.58;101515.50;7398906;19;1535;-42
2023/10/05 12:54:08;;;;;;;;;;;;;;;23.71;45.33;101509.97;7396035;19;1599;-42
2023/10/05 12:56:40;;;;;;;;;;;;;;;23.90;45.37;101507.22;7388559;19;1377;-42
2023/10/05 12:59:09;;;;;;;;;;;;;;;23.75;45.60;101478.97;7396000;19;1388;-42
2023/10/05 13:01:41;;;;;;;;;;;;;;;23.79;45.93;101492.03;7398785;19;1239;-42
2023/10/05 13:04:09;;;;;;;;;;;;;;;23.71;46.07;101483.81;7387552;19;1883;-42
2023/10/05 13:06:38;;;;;;;;;;;;;;;23.68;46.09;101499.50;7394314;19;1658;-42
2023/10/05 13:09:11;;;;;;;;;;;;;;;23.63;46.22;101491.81;7396075;19;1558;-41
2023/10/05 13:11:45;;;;;;;;;;;;;;;23.54;45.88;101482.78;7393225;19;1463;-42
2023/10/05 13:14:14;;;;;;;;;;;;;;;23.49;46.02;101484.19;7396672;19;1537;-42
2023/10/05 13:16:44;;;;;;;;;;;;;;;23.47;46.13;101470.84;7394315;19;1787;-42